Ancram, New York
Current Conditions -  °F | °C
As of 9:53 PM on Saturday 25 Oct 2014 (Local Time) from KPOU Reporting Station
Overcast Overcast  
Wind Chill: 55°   Ceiling: 6000
Heat Index: 55°   Visibility: 10mi
Dew Point: 46°   Wind: 10mph
Humidity: 72%   Direction: 340°NNW
Pressure: 29.58"   Gusts: NA
Location:  42.05°N, 73.64°W
Report Text: KPOU 260153Z AUTO 34009KT 10SM BKN060 OVC080 13/08 A2958 RMK AO2 PRESRR SLP013 T01280078 TSNO
Loading
Personal Weather Stations






























Interactive Weather Map New forecast layout! Learn more

10-Day Weather Forecast

Advertisements
Track Severe Weather on mobile